Time;durP1;ratioP1;P1;durP2;ratioP2;P2;SDS_P1;SDS_P2;PMS_P1;PMS_P2;Temp;Humidity;BMP_temperature;BMP_pressure;BME280_temperature;BME280_humidity;BME280_pressure;Samples;Min_cycle;Max_cycle;Signal;HPM_P1;HPM_P2
2021/04/09 00:00:02;;;;;;;2.53;1.30;;;5.30;62.90;;;;;;4943382;28;20709;-67
2021/04/09 00:02:39;;;;;;;3.40;1.60;;;5.20;63.10;;;;;;4923173;29;20289;-67
2021/04/09 00:05:08;;;;;;;3.40;1.20;;;5.20;63.80;;;;;;4929873;29;20240;-67
2021/04/09 00:07:34;;;;;;;5.33;1.80;;;5.20;64.10;;;;;;4930973;29;20249;-67
2021/04/09 00:10:01;;;;;;;4.23;1.30;;;5.10;64.50;;;;;;4929961;29;20206;-67
2021/04/09 00:12:31;;;;;;;2.10;1.33;;;5.10;64.90;;;;;;4931227;29;20553;-66
2021/04/09 00:14:57;;;;;;;2.10;1.50;;;5.10;65.30;;;;;;4929783;29;21217;-67
2021/04/09 00:17:24;;;;;;;4.17;1.47;;;5.10;65.80;;;;;;4930672;29;20312;-67
2021/04/09 00:19:50;;;;;;;2.10;1.40;;;5.10;66.40;;;;;;4931352;29;20214;-67
2021/04/09 00:22:17;;;;;;;6.87;1.60;;;5.10;66.80;;;;;;4930413;29;20209;-67
2021/04/09 00:24:43;;;;;;;3.50;1.87;;;5.10;67.30;;;;;;4928493;29;20268;-67
2021/04/09 00:27:10;;;;;;;2.27;1.30;;;5.10;67.90;;;;;;4930186;29;20212;-66
2021/04/09 00:29:38;;;;;;;3.63;1.60;;;5.10;68.40;;;;;;4930836;29;20256;-66
2021/04/09 00:32:05;;;;;;;8.43;2.50;;;5.10;68.80;;;;;;4931427;29;20280;-67
2021/04/09 00:34:32;;;;;;;6.30;2.50;;;5.00;69.40;;;;;;4929837;29;20218;-67
2021/04/09 00:36:59;;;;;;;4.17;2.07;;;5.00;70.00;;;;;;4929199;29;20206;-67
2021/04/09 00:39:25;;;;;;;3.67;2.00;;;5.00;70.90;;;;;;4929065;29;20213;-66
2021/04/09 00:41:52;;;;;;;2.53;1.60;;;5.00;71.50;;;;;;4930252;29;20598;-67
2021/04/09 00:44:19;;;;;;;3.17;2.10;;;4.90;72.20;;;;;;4930851;29;20311;-67
2021/04/09 00:46:47;;;;;;;5.47;1.80;;;4.90;73.10;;;;;;4929415;29;20305;-67
2021/04/09 00:49:13;;;;;;;4.60;1.73;;;4.90;73.70;;;;;;4931020;29;20383;-67
2021/04/09 00:51:40;;;;;;;2.10;1.80;;;4.90;74.50;;;;;;4929430;29;20218;-67
2021/04/09 00:54:08;;;;;;;3.27;1.57;;;4.90;75.20;;;;;;4926258;29;20256;-67
2021/04/09 00:56:35;;;;;;;2.93;1.70;;;4.90;76.00;;;;;;4928720;29;20236;-67
2021/04/09 00:59:03;;;;;;;2.33;1.60;;;4.90;76.80;;;;;;4931027;29;20201;-67
2021/04/09 01:01:30;;;;;;;2.80;1.43;;;4.90;77.70;;;;;;4929907;29;20332;-67
2021/04/09 01:03:58;;;;;;;2.83;1.50;;;4.90;78.40;;;;;;4928810;29;20205;-67
2021/04/09 01:06:25;;;;;;;2.47;1.60;;;4.90;79.10;;;;;;4930067;29;20292;-67
2021/04/09 01:08:51;;;;;;;2.27;1.50;;;4.90;79.90;;;;;;4929611;29;20232;-66
2021/04/09 01:11:18;;;;;;;2.33;1.67;;;4.90;80.60;;;;;;4927493;29;20696;-66
2021/04/09 01:13:46;;;;;;;1.87;1.37;;;4.90;81.20;;;;;;4927297;29;20304;-66
2021/04/09 01:16:18;;;;;;;3.60;1.60;;;4.90;82.00;;;;;;4927706;29;20579;-66
2021/04/09 01:18:51;;;;;;;2.63;1.70;;;4.90;83.00;;;;;;4930891;29;20225;-66
2021/04/09 01:21:27;;;;;;;1.83;1.40;;;4.90;84.10;;;;;;4930313;29;20206;-66
2021/04/09 01:24:18;;;;;;;1.60;1.30;;;4.90;85.10;;;;;;4930737;29;20201;-66
2021/04/09 01:27:44;;;;;;;4.33;1.60;;;5.00;86.30;;;;;;4929259;29;20502;-66
2021/04/09 01:30:53;;;;;;;3.10;1.57;;;5.00;87.70;;;;;;4928425;29;20201;-66
2021/04/09 01:33:23;;;;;;;1.70;1.40;;;5.00;89.20;;;;;;4930929;29;20277;-66
2021/04/09 01:35:54;;;;;;;2.23;1.13;;;5.00;90.10;;;;;;4938229;28;20297;-66
2021/04/09 01:38:23;;;;;;;6.40;1.93;;;5.00;90.50;;;;;;4930689;29;20204;-66
2021/04/09 01:40:53;;;;;;;2.40;1.30;;;5.00;91.10;;;;;;4928446;29;20201;-66
2021/04/09 01:43:22;;;;;;;1.83;1.07;;;5.00;91.40;;;;;;4930657;29;20280;-66
2021/04/09 01:45:50;;;;;;;1.97;1.30;;;5.00;91.80;;;;;;4929469;29;20212;-66
2021/04/09 01:48:18;;;;;;;2.50;1.30;;;5.00;92.60;;;;;;4930307;29;20240;-66
2021/04/09 01:50:47;;;;;;;4.03;1.47;;;4.90;93.00;;;;;;4930244;29;20278;-66
2021/04/09 01:53:14;;;;;;;2.13;1.40;;;4.90;93.40;;;;;;4930631;29;20529;-66
2021/04/09 01:55:47;;;;;;;2.87;1.30;;;4.90;93.80;;;;;;4932782;28;20508;-66
2021/04/09 01:58:16;;;;;;;3.47;1.40;;;4.90;94.30;;;;;;4927795;29;20324;-66
2021/04/09 02:00:43;;;;;;;2.63;1.50;;;4.90;94.70;;;;;;4928304;29;20214;-66
2021/04/09 02:03:11;;;;;;;3.33;1.40;;;4.80;95.40;;;;;;4930438;29;20233;-66
2021/04/09 02:05:39;;;;;;;1.87;1.20;;;4.80;95.70;;;;;;4929910;29;20221;-66
2021/04/09 02:08:10;;;;;;;1.60;1.10;;;4.80;95.90;;;;;;4928528;29;20241;-66
2021/04/09 02:10:38;;;;;;;1.53;1.00;;;4.80;96.00;;;;;;4928038;29;20300;-67
2021/04/09 02:13:06;;;;;;;1.37;0.90;;;4.80;96.30;;;;;;4929381;29;20198;-66
2021/04/09 02:15:33;;;;;;;2.23;1.20;;;4.80;96.40;;;;;;4932869;29;20201;-66
2021/04/09 02:18:00;;;;;;;2.80;1.43;;;4.80;96.80;;;;;;4935395;28;20297;-67
2021/04/09 02:20:26;;;;;;;4.10;0.90;;;4.80;96.90;;;;;;4933514;29;20684;-66
2021/04/09 02:22:53;;;;;;;1.10;1.00;;;4.80;97.00;;;;;;4934399;29;20198;-66
2021/04/09 02:25:23;;;;;;;2.67;1.23;;;4.80;97.10;;;;;;4931264;29;20690;-66
2021/04/09 02:27:51;;;;;;;2.40;0.90;;;4.80;97.60;;;;;;4934168;29;20253;-67
2021/04/09 02:30:21;;;;;;;3.73;1.30;;;4.70;97.80;;;;;;4932791;29;20225;-66
2021/04/09 02:32:47;;;;;;;3.40;1.30;;;4.70;97.90;;;;;;4934048;29;20537;-67
2021/04/09 02:35:16;;;;;;;2.03;1.10;;;4.70;98.30;;;;;;4924422;29;20608;-67
2021/04/09 02:37:44;;;;;;;2.30;1.20;;;4.70;98.90;;;;;;4933704;29;20284;-67
2021/04/09 02:40:16;;;;;;;4.33;1.20;;;4.60;98.90;;;;;;4931305;29;20738;-67
2021/04/09 02:42:47;;;;;;;1.80;1.20;;;4.60;99.10;;;;;;4934058;29;20285;-67
2021/04/09 02:45:15;;;;;;;1.63;1.03;;;4.60;99.10;;;;;;4932584;29;20214;-67
2021/04/09 02:47:44;;;;;;;2.07;1.47;;;4.60;99.10;;;;;;4927436;29;20674;-66
2021/04/09 02:50:15;;;;;;;2.77;1.20;;;4.60;99.40;;;;;;4928202;29;20213;-66
2021/04/09 02:52:48;;;;;;;1.27;1.17;;;4.60;99.60;;;;;;4931983;29;20213;-67
2021/04/09 02:55:18;;;;;;;2.57;1.23;;;4.50;99.60;;;;;;4931078;29;20580;-66
2021/04/09 02:57:47;;;;;;;3.67;1.77;;;4.60;99.90;;;;;;4933503;29;20289;-66
2021/04/09 03:00:16;;;;;;;3.57;1.40;;;4.50;99.90;;;;;;4930631;29;20325;-67
2021/04/09 03:02:43;;;;;;;2.47;1.47;;;4.50;99.90;;;;;;4931375;29;20233;-66
2021/04/09 03:05:12;;;;;;;2.30;1.17;;;4.50;99.90;;;;;;4932529;29;20781;-66
2021/04/09 03:07:43;;;;;;;3.17;1.67;;;4.50;99.90;;;;;;4932199;29;20292;-66
2021/04/09 03:10:13;;;;;;;2.53;1.20;;;4.50;99.90;;;;;;4931089;29;20750;-66
2021/04/09 03:12:44;;;;;;;1.80;1.10;;;4.50;99.90;;;;;;4933222;29;20281;-66
2021/04/09 03:15:17;;;;;;;1.47;1.03;;;4.50;99.90;;;;;;4926240;29;20202;-66
2021/04/09 03:17:52;;;;;;;2.80;1.53;;;4.50;99.90;;;;;;4933062;29;20285;-66
2021/04/09 03:20:19;;;;;;;2.17;1.30;;;4.50;99.90;;;;;;4932540;29;20541;-66
2021/04/09 03:22:45;;;;;;;2.57;1.17;;;4.50;99.90;;;;;;4931513;29;20210;-66
2021/04/09 03:25:12;;;;;;;2.40;1.30;;;4.50;99.90;;;;;;4929634;29;20308;-66
2021/04/09 03:27:39;;;;;;;3.80;1.50;;;4.50;99.90;;;;;;4932628;29;20221;-66
2021/04/09 03:30:06;;;;;;;3.03;1.23;;;4.80;99.90;;;;;;4931668;29;20205;-66
2021/04/09 03:32:34;;;;;;;5.03;1.80;;;4.40;99.90;;;;;;4938216;28;20255;-66
2021/04/09 03:35:00;;;;;;;2.87;1.27;;;4.40;99.90;;;;;;4932284;29;20280;-67
2021/04/09 03:37:27;;;;;;;4.60;1.70;;;4.40;99.90;;;;;;4931487;29;20685;-67
2021/04/09 03:39:53;;;;;;;2.30;1.50;;;4.40;99.90;;;;;;4929524;29;20256;-67
2021/04/09 03:42:21;;;;;;;1.97;1.40;;;4.40;99.90;;;;;;4932089;29;20725;-66
2021/04/09 03:44:47;;;;;;;2.53;1.30;;;4.30;99.90;;;;;;4931362;29;20280;-66
2021/04/09 03:47:14;;;;;;;4.70;1.77;;;4.40;99.90;;;;;;4932322;29;20654;-66
2021/04/09 03:49:43;;;;;;;4.57;1.80;;;4.40;99.90;;;;;;4931948;29;20675;-67
2021/04/09 03:52:10;;;;;;;4.70;2.07;;;4.40;99.90;;;;;;4932830;29;20197;-67
2021/04/09 03:54:36;;;;;;;2.77;1.70;;;4.40;99.90;;;;;;4931447;29;20277;-66
2021/04/09 03:57:03;;;;;;;4.07;1.57;;;4.40;99.90;;;;;;4930639;29;20712;-66
2021/04/09 03:59:29;;;;;;;5.63;1.87;;;4.30;99.90;;;;;;4931523;29;20756;-67
2021/04/09 04:01:56;;;;;;;4.57;2.00;;;4.40;99.90;;;;;;4931789;29;20319;-66
2021/04/09 04:04:24;;;;;;;4.27;1.97;;;4.40;99.90;;;;;;4932231;29;20221;-66
2021/04/09 04:06:51;;;;;;;2.83;1.50;;;5.30;99.90;;;;;;4931692;29;20206;-67
2021/04/09 04:09:18;;;;;;;3.03;1.87;;;4.40;99.90;;;;;;4932994;28;20230;-66
2021/04/09 04:11:45;;;;;;;3.03;1.70;;;4.30;99.90;;;;;;4930903;29;20225;-66
2021/04/09 04:14:11;;;;;;;2.67;1.70;;;4.40;99.90;;;;;;4932020;29;20213;-66
2021/04/09 04:16:38;;;;;;;4.00;1.80;;;4.30;99.90;;;;;;4934552;28;20206;-66
2021/04/09 04:19:04;;;;;;;3.10;1.87;;;4.40;99.90;;;;;;4932053;29;20316;-66
2021/04/09 04:21:31;;;;;;;2.13;1.70;;;4.40;99.90;;;;;;4931650;29;20444;-66
2021/04/09 04:23:59;;;;;;;2.97;1.77;;;4.40;99.90;;;;;;4931924;29;20202;-66
2021/04/09 04:26:25;;;;;;;7.00;2.23;;;4.40;99.90;;;;;;4929315;29;20260;-65
2021/04/09 04:28:52;;;;;;;4.57;1.93;;;4.50;99.90;;;;;;4946371;28;20319;-65
2021/04/09 04:31:19;;;;;;;4.33;2.20;;;4.40;99.90;;;;;;4931205;29;20201;-66
2021/04/09 04:33:45;;;;;;;3.70;2.13;;;4.40;99.90;;;;;;4931764;29;20220;-66
2021/04/09 04:36:12;;;;;;;6.80;2.63;;;4.50;99.90;;;;;;4931286;29;20198;-66
2021/04/09 04:38:38;;;;;;;8.17;2.60;;;4.50;99.90;;;;;;4929867;29;20248;-67
2021/04/09 04:41:05;;;;;;;4.10;2.33;;;4.60;99.90;;;;;;4931405;28;20234;-67
2021/04/09 04:43:32;;;;;;;5.07;2.40;;;4.60;99.90;;;;;;4940971;28;20599;-67
2021/04/09 04:45:59;;;;;;;5.20;2.40;;;4.60;99.90;;;;;;4930554;29;20272;-67
2021/04/09 04:48:25;;;;;;;3.87;2.40;;;4.70;99.90;;;;;;4930477;29;20222;-67
2021/04/09 04:50:54;;;;;;;7.20;3.30;;;4.70;99.90;;;;;;4931937;29;20213;-67
2021/04/09 04:53:21;;;;;;;5.07;2.93;;;4.70;99.90;;;;;;4931893;29;20280;-67
2021/04/09 04:55:47;;;;;;;6.10;2.60;;;4.70;99.90;;;;;;4929274;29;20542;-66
2021/04/09 04:58:14;;;;;;;5.60;2.43;;;4.70;99.90;;;;;;4931131;29;20321;-67
2021/04/09 05:00:41;;;;;;;4.23;2.20;;;4.80;99.90;;;;;;4928718;29;20308;-67
2021/04/09 05:03:07;;;;;;;4.07;2.60;;;4.90;99.90;;;;;;4930870;29;20201;-67
2021/04/09 05:05:34;;;;;;;8.07;2.90;;;4.90;99.90;;;;;;4930683;29;20217;-67
2021/04/09 05:08:00;;;;;;;6.63;2.57;;;5.00;99.90;;;;;;4930539;29;20300;-67
2021/04/09 05:10:27;;;;;;;5.50;2.50;;;5.10;99.90;;;;;;4917651;29;20978;-67
2021/04/09 05:12:53;;;;;;;6.37;3.30;;;5.10;99.90;;;;;;4930846;29;20635;-67
2021/04/09 05:15:21;;;;;;;11.90;3.03;;;5.20;99.90;;;;;;4930543;29;20269;-67
2021/04/09 05:17:47;;;;;;;3.00;2.47;;;5.30;99.90;;;;;;4930498;29;20313;-67
2021/04/09 05:20:15;;;;;;;3.33;2.50;;;5.30;99.90;;;;;;4930476;29;20202;-67
2021/04/09 05:22:44;;;;;;;3.43;2.20;;;5.40;99.90;;;;;;4931064;29;20345;-67
2021/04/09 05:25:11;;;;;;;3.67;2.30;;;5.50;99.90;;;;;;4928804;29;20282;-67
2021/04/09 05:27:38;;;;;;;3.77;2.10;;;5.60;99.90;;;;;;4930591;29;20202;-66
2021/04/09 05:30:06;;;;;;;4.43;2.37;;;5.70;99.90;;;;;;4929820;29;20712;-66
2021/04/09 05:32:33;;;;;;;3.33;2.23;;;5.70;99.90;;;;;;4928310;29;20936;-67
2021/04/09 05:35:00;;;;;;;4.83;2.90;;;5.80;99.90;;;;;;4928743;29;20208;-67
2021/04/09 05:37:26;;;;;;;6.80;2.50;;;5.90;99.60;;;;;;4930715;29;20284;-66
2021/04/09 05:39:53;;;;;;;3.83;1.97;;;6.10;99.40;;;;;;4929421;29;20225;-66
2021/04/09 05:42:19;;;;;;;4.87;2.63;;;6.00;99.10;;;;;;4930270;29;20614;-67
2021/04/09 05:44:46;;;;;;;6.60;2.63;;;6.20;98.80;;;;;;4929654;29;20602;-67
2021/04/09 05:47:12;;;;;;;3.53;2.13;;;6.30;98.50;;;;;;4930320;29;20205;-67
2021/04/09 05:49:40;;;;;;;4.67;2.87;;;6.40;98.20;;;;;;4934308;29;20638;-67
2021/04/09 05:52:07;;;;;;;4.40;2.63;;;6.50;97.80;;;;;;4935405;29;20212;-67
2021/04/09 05:54:35;;;;;;;5.73;2.80;;;6.70;97.40;;;;;;4934046;29;20831;-67
2021/04/09 05:57:01;;;;;;;4.50;2.53;;;7.00;97.00;;;;;;4935760;29;20312;-67
2021/04/09 05:59:28;;;;;;;5.67;2.37;;;7.40;96.30;;;;;;4935054;29;20281;-67
2021/04/09 06:01:55;;;;;;;6.33;2.60;;;7.70;95.40;;;;;;4936666;29;20215;-67
2021/04/09 06:04:21;;;;;;;6.97;2.83;;;7.80;94.50;;;;;;4936035;29;20495;-67
2021/04/09 06:06:49;;;;;;;5.00;2.50;;;7.90;93.80;;;;;;4928436;29;20198;-67
2021/04/09 06:09:16;;;;;;;5.50;2.40;;;8.20;93.10;;;;;;4934566;29;20301;-66
2021/04/09 06:11:42;;;;;;;7.10;2.90;;;8.40;92.30;;;;;;4932940;29;20210;-67
2021/04/09 06:14:09;;;;;;;4.40;2.63;;;8.60;91.40;;;;;;4943867;28;20281;-66
2021/04/09 06:16:35;;;;;;;4.40;2.60;;;8.90;90.60;;;;;;4933888;29;20264;-66
2021/04/09 06:19:02;;;;;;;6.10;2.70;;;9.10;89.60;;;;;;4935302;29;21031;-67
2021/04/09 06:21:28;;;;;;;3.00;1.67;;;9.30;86.70;;;;;;4935651;29;20302;-67
2021/04/09 06:23:56;;;;;;;2.17;1.90;;;9.30;85.30;;;;;;4931384;29;20250;-67
2021/04/09 06:26:23;;;;;;;2.20;2.00;;;9.80;84.90;;;;;;4929335;29;20863;-67
2021/04/09 06:28:50;;;;;;;4.73;2.40;;;9.70;83.20;;;;;;4921244;29;20242;-65
2021/04/09 06:31:16;;;;;;;3.17;2.20;;;10.00;79.90;;;;;;4945737;28;20207;-65
2021/04/09 06:33:42;;;;;;;4.03;2.23;;;10.10;78.50;;;;;;4941328;28;20242;-67
2021/04/09 06:36:09;;;;;;;3.97;2.50;;;10.20;76.90;;;;;;4947197;28;20280;-67
2021/04/09 06:38:36;;;;;;;4.77;2.17;;;10.40;76.30;;;;;;4926988;29;20207;-67
2021/04/09 06:41:04;;;;;;;4.20;2.33;;;10.70;75.30;;;;;;4932159;29;20216;-66
2021/04/09 06:43:30;;;;;;;5.17;2.47;;;10.90;71.60;;;;;;4934948;29;20273;-66
2021/04/09 06:45:57;;;;;;;4.67;2.20;;;11.00;70.20;;;;;;4934314;29;20206;-66
2021/04/09 06:48:24;;;;;;;2.77;2.10;;;11.20;69.20;;;;;;4935484;29;20325;-67
2021/04/09 06:50:50;;;;;;;3.17;2.27;;;11.40;69.30;;;;;;4941317;28;20571;-66
2021/04/09 06:53:17;;;;;;;3.53;2.40;;;11.60;67.60;;;;;;4934696;29;20206;-66
2021/04/09 06:55:46;;;;;;;6.00;2.60;;;11.80;66.30;;;;;;4930305;29;20311;-66
2021/04/09 06:58:17;;;;;;;4.87;2.33;;;11.80;63.10;;;;;;4934998;29;20663;-66
2021/04/09 07:00:45;;;;;;;4.17;2.47;;;11.90;62.20;;;;;;4932579;29;20592;-66
2021/04/09 07:03:13;;;;;;;2.90;2.10;;;11.80;61.00;;;;;;4930576;29;20273;-66
2021/04/09 07:05:40;;;;;;;2.87;2.17;;;11.70;60.70;;;;;;4939004;29;20547;-66
2021/04/09 07:08:08;;;;;;;4.30;2.00;;;11.80;60.60;;;;;;4930689;29;20257;-66
2021/04/09 07:10:34;;;;;;;4.87;2.30;;;11.80;60.60;;;;;;4927700;29;20299;-66
2021/04/09 07:13:05;;;;;;;3.03;2.33;;;11.90;59.80;;;;;;4930762;29;20205;-68
2021/04/09 07:15:43;;;;;;;3.73;2.33;;;11.90;59.00;;;;;;4926577;29;20206;-67
2021/04/09 07:18:11;;;;;;;5.00;2.43;;;11.80;58.20;;;;;;4932157;29;20189;-67
2021/04/09 07:20:39;;;;;;;6.80;2.37;;;11.80;57.80;;;;;;4929865;29;20292;-67
2021/04/09 07:23:07;;;;;;;2.30;2.00;;;11.70;57.20;;;;;;4934342;29;20708;-67
2021/04/09 07:25:35;;;;;;;3.57;2.13;;;11.70;57.50;;;;;;4931432;29;20256;-67
2021/04/09 07:28:14;;;;;;;2.90;2.57;;;11.80;57.40;;;;;;4929993;29;20312;-67
2021/04/09 07:30:42;;;;;;;5.83;2.80;;;11.90;57.00;;;;;;4929327;29;20198;-66
2021/04/09 07:33:10;;;;;;;6.77;2.50;;;12.00;56.10;;;;;;4931379;29;20247;-67
2021/04/09 07:35:48;;;;;;;7.77;2.83;;;12.00;55.20;;;;;;4944934;28;20605;-67
2021/04/09 07:38:25;;;;;;;4.87;2.73;;;12.10;55.10;;;;;;4927429;29;20281;-66
2021/04/09 07:40:57;;;;;;;3.07;2.07;;;12.30;55.10;;;;;;4922290;29;20669;-67
2021/04/09 07:43:24;;;;;;;4.53;2.37;;;12.50;55.20;;;;;;4929607;29;20297;-66
2021/04/09 07:45:55;;;;;;;5.03;2.30;;;12.60;53.80;;;;;;4930024;29;20204;-68
2021/04/09 07:48:29;;;;;;;4.97;2.40;;;12.60;53.20;;;;;;4945791;28;20238;-67
2021/04/09 07:50:56;;;;;;;5.00;2.40;;;12.50;52.80;;;;;;4929113;29;20625;-66
2021/04/09 07:53:45;;;;;;;3.63;2.20;;;12.60;53.10;;;;;;4933015;29;20194;-66
2021/04/09 07:56:14;;;;;;;7.40;2.80;;;12.60;53.10;;;;;;4924000;29;20246;-66
2021/04/09 07:58:43;;;;;;;5.13;2.40;;;12.60;52.80;;;;;;4918772;29;20273;-66
2021/04/09 08:01:21;;;;;;;6.20;2.47;;;12.60;52.60;;;;;;4943290;28;20248;-67
2021/04/09 08:03:48;;;;;;;2.80;1.70;;;12.60;51.90;;;;;;4926521;29;20202;-66
2021/04/09 08:06:17;;;;;;;4.30;1.97;;;12.60;51.80;;;;;;4925251;29;20575;-66
2021/04/09 08:08:57;;;;;;;5.67;2.70;;;12.70;52.00;;;;;;4929950;29;20232;-66
2021/04/09 08:11:29;;;;;;;3.83;2.30;;;12.90;51.50;;;;;;4927797;29;20310;-66
2021/04/09 08:14:04;;;;;;;4.77;2.40;;;13.00;51.00;;;;;;4928567;29;20223;-66
2021/04/09 08:16:33;;;;;;;5.13;2.57;;;13.00;50.10;;;;;;4929825;29;20313;-66
2021/04/09 08:19:02;;;;;;;8.83;2.80;;;13.00;49.90;;;;;;4931377;29;20280;-66
2021/04/09 08:21:31;;;;;;;5.30;2.70;;;13.10;50.00;;;;;;4930039;29;20303;-67
2021/04/09 08:23:57;;;;;;;4.97;2.50;;;13.60;49.80;;;;;;4929298;29;20636;-66
2021/04/09 08:26:25;;;;;;;4.67;1.80;;;14.00;48.80;;;;;;4920175;29;20229;-66
2021/04/09 08:28:52;;;;;;;6.63;2.60;;;14.50;48.30;;;;;;4946721;28;21123;-66
2021/04/09 08:31:19;;;;;;;7.57;2.93;;;15.30;47.40;;;;;;4931717;29;20225;-66
2021/04/09 08:33:47;;;;;;;5.67;2.50;;;16.00;46.10;;;;;;4931113;29;20211;-66
2021/04/09 08:36:20;;;;;;;2.43;1.90;;;16.30;45.50;;;;;;4931184;29;20686;-68
2021/04/09 08:38:50;;;;;;;3.50;2.40;;;16.40;44.60;;;;;;4941225;28;20207;-67
2021/04/09 08:41:18;;;;;;;5.77;2.67;;;16.60;43.80;;;;;;4935043;28;20215;-67
2021/04/09 08:43:45;;;;;;;4.87;2.30;;;16.80;43.20;;;;;;4930259;29;20217;-67
2021/04/09 08:46:12;;;;;;;5.33;1.97;;;17.40;43.10;;;;;;4930005;29;20203;-67
2021/04/09 08:48:39;;;;;;;5.30;2.00;;;18.00;42.50;;;;;;4932048;29;20214;-67
2021/04/09 08:51:09;;;;;;;9.63;3.00;;;18.40;41.50;;;;;;4929068;29;20664;-67
2021/04/09 08:53:35;;;;;;;6.00;2.23;;;18.40;39.80;;;;;;4930031;29;20213;-67
2021/04/09 08:56:03;;;;;;;5.00;2.40;;;18.30;39.70;;;;;;4943840;28;20316;-67
2021/04/09 08:58:42;;;;;;;4.70;2.87;;;18.30;39.60;;;;;;4929852;29;20281;-67
2021/04/09 09:01:11;;;;;;;6.77;2.30;;;18.30;39.50;;;;;;4929884;29;20201;-67
2021/04/09 09:03:39;;;;;;;4.33;2.50;;;18.60;39.60;;;;;;4928732;29;20916;-67
2021/04/09 09:06:08;;;;;;;5.30;3.10;;;18.90;39.10;;;;;;4930347;29;20749;-65
2021/04/09 09:08:59;;;;;;;4.47;3.10;;;19.30;38.60;;;;;;4931396;29;20252;-65
2021/04/09 09:11:48;;;;;;;7.40;3.33;;;20.30;37.80;;;;;;4888323;29;20728;-67
2021/04/09 09:14:45;;;;;;;7.68;2.85;;;21.80;37.00;;;;;;4876681;29;20243;-67
2021/04/09 09:17:40;;;;;;;4.72;2.42;;;23.10;36.10;;;;;;4875183;29;20806;-68
2021/04/09 09:20:18;;;;;;;4.47;2.70;;;23.60;34.60;;;;;;4874177;29;20203;-67
2021/04/09 09:22:49;;;;;;;3.22;2.25;;;23.30;34.30;;;;;;4886065;29;20234;-67
2021/04/09 09:25:16;;;;;;;5.45;3.33;;;22.80;34.90;;;;;;4889795;29;20216;-67
2021/04/09 09:27:47;;;;;;;5.05;2.95;;;22.50;33.90;;;;;;4888151;29;20246;-67
2021/04/09 09:30:35;;;;;;;4.30;2.60;;;21.90;33.90;;;;;;4888908;29;20338;-67
2021/04/09 09:33:22;;;;;;;6.55;2.78;;;21.10;34.10;;;;;;4892477;29;20227;-67
2021/04/09 09:36:10;;;;;;;3.42;2.65;;;20.40;34.60;;;;;;4885409;29;20691;-66
2021/04/09 09:38:51;;;;;;;5.00;2.80;;;19.90;34.70;;;;;;4889634;29;20567;-66
2021/04/09 09:41:34;;;;;;;3.90;2.40;;;19.60;35.10;;;;;;4873483;29;20225;-68
2021/04/09 09:44:02;;;;;;;4.53;2.50;;;19.50;35.50;;;;;;4888952;29;20211;-66
2021/04/09 09:47:00;;;;;;;4.80;3.03;;;19.40;35.10;;;;;;4873971;29;20636;-67
2021/04/09 09:49:28;;;;;;;8.40;2.93;;;18.90;34.90;;;;;;4849506;29;20319;-67
2021/04/09 09:51:55;;;;;;;6.57;2.97;;;18.50;34.70;;;;;;4857883;29;20227;-67
2021/04/09 09:54:28;;;;;;;4.70;2.60;;;18.60;34.90;;;;;;4852971;29;20287;-67
2021/04/09 09:56:56;;;;;;;4.00;2.70;;;19.00;34.90;;;;;;4854472;29;20248;-67
2021/04/09 09:59:26;;;;;;;10.40;3.23;;;19.10;34.60;;;;;;4855191;29;20310;-66
2021/04/09 10:01:54;;;;;;;5.27;2.67;;;18.90;34.70;;;;;;4838191;29;20306;-67
2021/04/09 10:04:22;;;;;;;4.93;2.60;;;18.80;34.90;;;;;;4850199;29;20319;-67
2021/04/09 10:06:52;;;;;;;5.23;2.43;;;18.40;35.10;;;;;;4851952;29;20481;-66
2021/04/09 10:09:32;;;;;;;53.37;9.00;;;18.20;35.70;;;;;;4851288;29;20236;-67
2021/04/09 10:11:59;;;;;;;52.27;10.13;;;17.80;35.90;;;;;;4851568;29;20341;-67
2021/04/09 10:14:28;;;;;;;8.90;3.67;;;17.50;35.90;;;;;;4852450;29;20200;-66
2021/04/09 10:16:59;;;;;;;4.73;2.60;;;17.20;36.30;;;;;;4837910;29;20440;-66
2021/04/09 10:19:26;;;;;;;5.07;2.43;;;16.80;36.30;;;;;;4853437;29;20208;-67
2021/04/09 10:21:53;;;;;;;6.20;2.73;;;16.50;36.70;;;;;;4853687;29;20301;-67
2021/04/09 10:24:21;;;;;;;3.33;2.37;;;16.20;36.90;;;;;;4917701;28;20288;-67
2021/04/09 10:26:53;;;;;;;6.60;2.87;;;16.00;37.20;;;;;;4928236;29;20205;-67
2021/04/09 10:29:24;;;;;;;7.23;3.07;;;16.00;37.20;;;;;;4928894;29;20222;-67
2021/04/09 10:31:51;;;;;;;5.20;2.93;;;15.90;37.20;;;;;;4929815;29;20197;-67
2021/04/09 10:34:22;;;;;;;7.20;3.33;;;15.90;37.20;;;;;;4929677;29;20287;-67
2021/04/09 10:36:49;;;;;;;4.77;2.97;;;16.00;37.30;;;;;;4932993;29;20748;-67
2021/04/09 10:39:17;;;;;;;5.33;3.03;;;15.90;37.40;;;;;;4933947;29;20201;-68
2021/04/09 10:41:46;;;;;;;3.47;2.80;;;15.70;37.60;;;;;;4930953;29;20613;-67
2021/04/09 10:44:17;;;;;;;4.63;2.30;;;15.60;37.80;;;;;;4933114;29;20668;-67
2021/04/09 10:46:45;;;;;;;4.10;2.97;;;15.60;38.10;;;;;;4933621;29;20208;-68
2021/04/09 10:49:14;;;;;;;7.77;3.07;;;15.60;38.30;;;;;;4932931;29;20225;-68
2021/04/09 10:51:43;;;;;;;9.17;3.70;;;15.50;38.20;;;;;;4934246;29;20201;-68
2021/04/09 10:54:13;;;;;;;10.10;3.03;;;15.50;38.70;;;;;;4948202;28;20201;-67
2021/04/09 10:56:49;;;;;;;3.43;2.63;;;15.80;38.10;;;;;;4930994;29;20224;-65
2021/04/09 10:59:17;;;;;;;5.47;2.77;;;16.10;37.90;;;;;;4933017;29;20264;-68
2021/04/09 11:01:44;;;;;;;4.53;2.70;;;16.50;38.30;;;;;;4932301;29;20201;-68
2021/04/09 11:04:14;;;;;;;3.43;2.20;;;16.70;37.40;;;;;;4932892;29;20206;-68
2021/04/09 11:06:40;;;;;;;6.03;2.93;;;16.90;37.50;;;;;;4931954;29;20281;-68
2021/04/09 11:09:08;;;;;;;4.97;3.00;;;16.90;37.40;;;;;;4931444;29;20230;-67
2021/04/09 11:11:37;;;;;;;3.37;2.40;;;16.90;37.30;;;;;;4931120;29;20374;-67
2021/04/09 11:14:06;;;;;;;5.33;3.07;;;16.80;37.40;;;;;;4943165;28;20301;-67
2021/04/09 11:16:49;;;;;;;6.40;2.97;;;16.40;37.10;;;;;;4932535;29;20197;-67
2021/04/09 11:19:28;;;;;;;8.23;2.67;;;16.10;37.40;;;;;;4931205;29;20220;-67
2021/04/09 11:21:56;;;;;;;6.03;3.47;;;15.80;37.60;;;;;;4931788;29;20302;-67
2021/04/09 11:24:29;;;;;;;3.43;2.93;;;15.60;37.70;;;;;;4933263;29;20209;-66
2021/04/09 11:26:57;;;;;;;5.37;3.10;;;15.30;38.00;;;;;;4929643;29;20335;-67
2021/04/09 11:29:27;;;;;;;6.17;3.07;;;15.00;38.30;;;;;;4932261;29;20340;-67
2021/04/09 11:32:10;;;;;;;9.50;3.33;;;14.80;38.60;;;;;;4931863;29;20200;-67
2021/04/09 11:34:42;;;;;;;3.57;2.73;;;14.70;39.60;;;;;;4921744;29;20224;-67
2021/04/09 11:37:09;;;;;;;4.97;2.77;;;14.70;39.20;;;;;;4933211;29;20271;-68
2021/04/09 11:39:47;;;;;;;5.87;3.17;;;14.70;39.30;;;;;;4932359;29;20660;-67
2021/04/09 11:42:13;;;;;;;4.27;3.03;;;14.80;39.50;;;;;;4925366;29;20665;-68
2021/04/09 11:44:40;;;;;;;7.60;3.23;;;14.90;39.60;;;;;;4929665;29;20224;-67
2021/04/09 11:47:20;;;;;;;9.83;3.50;;;14.90;39.50;;;;;;4933111;29;20205;-68
2021/04/09 11:49:48;;;;;;;6.70;3.10;;;15.00;39.60;;;;;;4932132;29;20230;-67
2021/04/09 11:52:15;;;;;;;9.00;3.20;;;15.00;39.60;;;;;;4933214;29;20208;-68
2021/04/09 11:54:42;;;;;;;7.20;3.33;;;15.20;39.70;;;;;;4927868;29;20244;-68
2021/04/09 11:57:23;;;;;;;4.07;2.70;;;15.60;39.40;;;;;;4937085;28;20339;-69
2021/04/09 11:59:50;;;;;;;4.47;2.80;;;16.00;38.80;;;;;;4928840;29;20272;-67
2021/04/09 12:02:26;;;;;;;4.33;2.93;;;16.40;38.50;;;;;;4932522;29;20236;-67
2021/04/09 12:04:53;;;;;;;6.37;3.13;;;16.70;38.20;;;;;;4923349;29;20348;-67
2021/04/09 12:07:21;;;;;;;4.30;3.50;;;16.90;38.10;;;;;;4931774;29;20206;-67
2021/04/09 12:09:51;;;;;;;6.67;2.93;;;17.00;38.10;;;;;;4931285;29;20225;-67
2021/04/09 12:12:19;;;;;;;10.13;3.97;;;17.00;38.30;;;;;;4946366;28;20202;-68
2021/04/09 12:14:47;;;;;;;6.90;3.10;;;16.90;38.10;;;;;;4931458;29;20341;-67
2021/04/09 12:17:16;;;;;;;5.53;2.97;;;16.90;38.20;;;;;;4932125;29;20573;-67
2021/04/09 12:19:45;;;;;;;5.63;3.00;;;16.90;38.30;;;;;;4932167;29;20530;-68
2021/04/09 12:22:12;;;;;;;4.50;3.50;;;16.90;38.10;;;;;;4932312;29;20249;-67
2021/04/09 12:24:39;;;;;;;7.13;3.10;;;16.90;38.00;;;;;;4931191;29;20240;-67
2021/04/09 12:27:06;;;;;;;3.87;2.90;;;16.80;37.90;;;;;;4929955;29;20285;-67
2021/04/09 12:29:34;;;;;;;4.07;2.63;;;16.70;37.70;;;;;;4931726;29;20245;-67
2021/04/09 12:32:01;;;;;;;3.70;2.53;;;16.60;37.90;;;;;;4930519;29;20288;-67
2021/04/09 12:34:27;;;;;;;2.57;2.37;;;16.50;37.80;;;;;;4945885;28;20292;-67
2021/04/09 12:36:55;;;;;;;4.17;2.40;;;16.50;37.90;;;;;;4931770;29;20206;-67
2021/04/09 12:39:23;;;;;;;5.33;2.73;;;16.60;38.20;;;;;;4930505;29;20226;-67
2021/04/09 12:41:50;;;;;;;8.43;3.20;;;16.60;38.10;;;;;;4927074;29;20216;-67
2021/04/09 12:44:19;;;;;;;4.10;2.77;;;16.60;37.90;;;;;;4925467;29;20774;-67
2021/04/09 12:46:47;;;;;;;5.10;3.10;;;16.50;38.00;;;;;;4930806;29;20288;-67
2021/04/09 12:49:14;;;;;;;4.10;2.23;;;16.50;38.70;;;;;;4930610;29;20712;-67
2021/04/09 12:51:41;;;;;;;4.63;2.60;;;16.50;38.30;;;;;;4931619;29;20569;-67
2021/04/09 12:54:08;;;;;;;12.30;3.30;;;16.50;38.80;;;;;;4945648;28;20243;-66
2021/04/09 12:56:35;;;;;;;5.03;3.20;;;16.40;38.00;;;;;;4924837;29;20316;-67
2021/04/09 12:59:02;;;;;;;3.47;2.80;;;16.30;37.90;;;;;;4930906;29;20370;-67
2021/04/09 13:01:29;;;;;;;3.27;2.60;;;16.20;38.00;;;;;;4929674;28;20220;-67
2021/04/09 13:03:55;;;;;;;6.67;3.10;;;16.10;38.30;;;;;;4931894;29;20256;-67